createdAt,value
2018-10-03T00:01:04.930Z,2.93
2018-10-03T00:03:07.212Z,3.93
2018-10-03T00:05:09.449Z,4.07
2018-10-03T00:07:11.695Z,3.00
2018-10-03T00:09:13.957Z,4.20
2018-10-03T00:11:16.208Z,4.53
2018-10-03T00:13:18.474Z,2.63
2018-10-03T00:15:20.746Z,2.03
2018-10-03T00:17:22.982Z,3.57
2018-10-03T00:19:25.266Z,2.03
2018-10-03T00:21:27.507Z,2.80
2018-10-03T00:23:29.808Z,3.97
2018-10-03T00:25:32.380Z,2.00
2018-10-03T00:27:34.613Z,3.80
2018-10-03T00:29:36.879Z,4.77
2018-10-03T00:31:39.112Z,3.47
2018-10-03T00:33:41.687Z,2.47
2018-10-03T00:35:43.913Z,3.13
2018-10-03T00:37:46.158Z,2.53
2018-10-03T00:39:48.418Z,1.63
2018-10-03T00:41:50.714Z,3.90
2018-10-03T00:43:52.936Z,6.67
2018-10-03T00:45:55.169Z,4.63
2018-10-03T00:47:57.470Z,4.83
2018-10-03T00:49:59.720Z,5.13
2018-10-03T00:52:01.995Z,2.13
2018-10-03T00:54:04.239Z,4.47
2018-10-03T00:56:06.516Z,3.87
2018-10-03T00:58:08.783Z,4.20
2018-10-03T01:00:11.041Z,3.43
2018-10-03T01:02:13.320Z,2.77
2018-10-03T01:04:15.554Z,4.27
2018-10-03T01:06:17.774Z,3.80
2018-10-03T01:08:20.051Z,3.50
2018-10-03T01:10:22.336Z,2.17
2018-10-03T01:12:24.600Z,2.83
2018-10-03T01:14:26.831Z,3.00
2018-10-03T01:16:29.114Z,3.77
2018-10-03T01:18:31.348Z,3.47
2018-10-03T01:20:33.636Z,3.30
2018-10-03T01:22:35.923Z,3.43
2018-10-03T01:24:38.170Z,3.00
2018-10-03T01:26:40.409Z,4.07
2018-10-03T01:28:42.691Z,4.03
2018-10-03T01:30:44.930Z,4.40
2018-10-03T01:32:47.173Z,3.30
2018-10-03T01:34:49.418Z,6.33
2018-10-03T01:36:51.684Z,4.53
2018-10-03T01:38:53.949Z,4.30
2018-10-03T01:40:56.197Z,2.90
2018-10-03T01:42:58.505Z,2.23
2018-10-03T01:45:00.754Z,3.87
2018-10-03T01:47:02.991Z,3.97
2018-10-03T01:49:05.247Z,4.43
2018-10-03T01:51:07.519Z,2.40
2018-10-03T01:53:09.781Z,3.67
2018-10-03T01:55:12.027Z,3.23
2018-10-03T01:57:14.261Z,3.57
2018-10-03T01:59:16.533Z,4.10
2018-10-03T02:01:19.158Z,3.47
2018-10-03T02:03:21.390Z,3.73
2018-10-03T02:05:23.669Z,5.43
2018-10-03T02:07:25.915Z,5.07
2018-10-03T02:09:28.197Z,3.90
2018-10-03T02:11:30.432Z,3.93
2018-10-03T02:13:32.666Z,3.40
2018-10-03T02:15:34.931Z,3.27
2018-10-03T02:17:37.173Z,3.33
2018-10-03T02:19:39.435Z,4.83
2018-10-03T02:21:41.737Z,3.80
2018-10-03T02:23:43.971Z,3.60
2018-10-03T02:25:46.251Z,4.23
2018-10-03T02:27:48.481Z,3.07
2018-10-03T02:29:50.741Z,3.30
2018-10-03T02:31:52.967Z,4.20
2018-10-03T02:33:55.238Z,2.90
2018-10-03T02:35:57.525Z,4.47
2018-10-03T02:37:59.750Z,2.70
2018-10-03T02:40:02.032Z,3.30
2018-10-03T02:42:04.279Z,3.00
2018-10-03T02:44:06.539Z,2.93
2018-10-03T02:46:08.811Z,4.20
2018-10-03T02:48:11.045Z,3.23
2018-10-03T02:50:13.267Z,3.97
2018-10-03T02:52:15.579Z,5.10
2018-10-03T02:54:17.847Z,2.87
2018-10-03T02:56:20.085Z,2.73
2018-10-03T02:58:22.349Z,3.13
2018-10-03T03:00:24.581Z,3.63
2018-10-03T03:02:26.842Z,3.37
2018-10-03T03:04:29.094Z,3.17
2018-10-03T03:06:31.355Z,4.63
2018-10-03T03:08:33.637Z,3.73
2018-10-03T03:10:35.820Z,3.90
2018-10-03T03:12:38.100Z,2.63
2018-10-03T03:14:40.318Z,4.23
2018-10-03T03:16:42.564Z,4.27
2018-10-03T03:18:44.832Z,2.80
2018-10-03T03:20:47.060Z,4.90
2018-10-03T03:22:49.318Z,2.53
2018-10-03T03:24:51.599Z,2.23
2018-10-03T03:26:53.828Z,4.53
2018-10-03T03:28:56.073Z,2.47
2018-10-03T03:30:58.355Z,4.37
2018-10-03T03:33:00.645Z,3.37
2018-10-03T03:35:02.872Z,4.17
2018-10-03T03:37:05.128Z,2.77
2018-10-03T03:39:07.361Z,2.67
2018-10-03T03:41:09.618Z,3.87
2018-10-03T03:43:11.834Z,4.30
2018-10-03T03:45:14.093Z,3.87
2018-10-03T03:47:16.340Z,3.50
2018-10-03T03:49:18.596Z,3.37
2018-10-03T03:51:20.872Z,4.60
2018-10-03T03:53:23.110Z,2.97
2018-10-03T03:55:25.377Z,2.03
2018-10-03T03:57:27.618Z,6.33
2018-10-03T03:59:29.847Z,3.03
2018-10-03T04:01:32.122Z,2.93
2018-10-03T04:03:34.351Z,2.67
2018-10-03T04:05:36.631Z,2.83
2018-10-03T04:07:38.877Z,2.57
2018-10-03T04:09:41.099Z,4.97
2018-10-03T04:11:43.380Z,3.57
2018-10-03T04:13:45.611Z,4.30
2018-10-03T04:15:47.850Z,3.27
2018-10-03T04:17:50.129Z,3.53
2018-10-03T04:19:52.349Z,3.63
2018-10-03T04:21:54.601Z,2.83
2018-10-03T04:23:56.840Z,4.17
2018-10-03T04:25:59.113Z,2.73
2018-10-03T04:28:01.379Z,3.07
2018-10-03T04:30:03.599Z,3.67
2018-10-03T04:32:05.830Z,2.87
2018-10-03T04:34:08.082Z,4.03
2018-10-03T04:36:10.363Z,4.13
2018-10-03T04:38:12.594Z,3.30
2018-10-03T04:40:14.824Z,4.70
2018-10-03T04:42:17.141Z,3.40
2018-10-03T04:44:19.356Z,2.70
2018-10-03T04:46:21.638Z,3.63
2018-10-03T04:48:23.856Z,4.27
2018-10-03T04:50:26.141Z,4.00
2018-10-03T04:52:28.476Z,5.10
2018-10-03T04:54:30.679Z,3.30
2018-10-03T04:56:32.916Z,3.67
2018-10-03T04:58:35.187Z,4.90
2018-10-03T05:00:37.462Z,3.67
2018-10-03T05:02:39.745Z,3.67
2018-10-03T05:04:42.015Z,2.80
2018-10-03T05:06:44.242Z,3.37
2018-10-03T05:08:46.510Z,2.57
2018-10-03T05:10:48.766Z,3.53
2018-10-03T05:12:50.986Z,3.33
2018-10-03T05:14:53.248Z,4.60
2018-10-03T05:16:55.475Z,4.10
2018-10-03T05:18:57.730Z,2.87
2018-10-03T05:20:59.969Z,3.53
2018-10-03T05:23:02.222Z,4.67
2018-10-03T05:25:04.447Z,3.97
2018-10-03T05:27:06.689Z,2.77
2018-10-03T05:29:08.935Z,4.00
2018-10-03T05:31:11.210Z,3.57
2018-10-03T05:33:13.520Z,3.20
2018-10-03T05:35:15.760Z,5.07
2018-10-03T05:37:18.052Z,4.07
2018-10-03T05:39:20.324Z,3.00
2018-10-03T05:41:22.575Z,5.13
2018-10-03T05:43:24.806Z,3.10
2018-10-03T05:45:27.077Z,5.93
2018-10-03T05:47:29.316Z,3.47
2018-10-03T05:49:31.617Z,3.30
2018-10-03T05:51:33.868Z,3.00
2018-10-03T05:53:36.106Z,4.13
2018-10-03T05:55:38.340Z,3.23
2018-10-03T05:57:40.630Z,3.07
2018-10-03T05:59:42.871Z,3.80
2018-10-03T06:01:45.144Z,4.03
2018-10-03T06:03:47.366Z,3.27
2018-10-03T06:05:49.643Z,2.80
2018-10-03T06:07:51.868Z,4.40
2018-10-03T06:09:54.111Z,3.07
2018-10-03T06:11:56.399Z,4.57
2018-10-03T06:13:58.667Z,3.87
2018-10-03T06:16:00.976Z,3.57
2018-10-03T06:18:03.200Z,4.20
2018-10-03T06:20:05.474Z,4.33
2018-10-03T06:22:07.722Z,3.97
2018-10-03T06:24:09.963Z,3.03
2018-10-03T06:26:12.230Z,4.20
2018-10-03T06:28:14.564Z,3.93
2018-10-03T06:30:16.749Z,4.93
2018-10-03T06:32:19.017Z,3.23
2018-10-03T06:34:21.325Z,2.07
2018-10-03T06:36:23.567Z,3.47
2018-10-03T06:38:25.813Z,3.87
2018-10-03T06:40:28.148Z,3.20
2018-10-03T06:42:30.339Z,2.63
2018-10-03T06:44:32.633Z,8.83
2018-10-03T06:46:34.919Z,4.97
2018-10-03T06:48:37.231Z,2.33
2018-10-03T06:50:39.451Z,4.90
2018-10-03T06:52:41.699Z,3.13
2018-10-03T06:54:44.303Z,2.83
2018-10-03T06:56:46.583Z,3.80
2018-10-03T06:58:48.832Z,5.60
2018-10-03T07:00:51.076Z,2.37
2018-10-03T07:02:53.305Z,3.67
2018-10-03T07:04:55.553Z,3.97
2018-10-03T07:06:57.793Z,4.60
2018-10-03T07:09:00.052Z,3.20
2018-10-03T07:11:02.322Z,4.70
2018-10-03T07:13:04.583Z,3.63
2018-10-03T07:15:06.839Z,3.93
2018-10-03T07:17:09.085Z,5.13
2018-10-03T07:19:11.349Z,5.07
2018-10-03T07:21:13.621Z,3.13
2018-10-03T07:23:15.928Z,3.33
2018-10-03T07:25:18.161Z,3.43
2018-10-03T07:27:20.443Z,4.37
2018-10-03T07:29:22.716Z,3.70
2018-10-03T07:31:24.973Z,5.53
2018-10-03T07:33:27.261Z,3.60
2018-10-03T07:35:29.487Z,3.40
2018-10-03T07:37:31.748Z,3.43
2018-10-03T07:39:33.984Z,4.17
2018-10-03T07:41:36.226Z,6.67
2018-10-03T07:43:38.511Z,4.80
2018-10-03T07:45:40.739Z,4.97
2018-10-03T07:47:42.984Z,2.97
2018-10-03T07:49:45.238Z,3.10
2018-10-03T07:51:47.466Z,3.90
2018-10-03T07:53:49.737Z,3.07
2018-10-03T07:55:51.993Z,3.87
2018-10-03T07:57:54.777Z,2.93
2018-10-03T07:59:56.997Z,3.80
2018-10-03T08:01:59.264Z,3.93
2018-10-03T08:04:01.558Z,3.47
2018-10-03T08:06:03.797Z,3.73
2018-10-03T08:08:06.057Z,3.70
2018-10-03T08:10:08.401Z,4.43
2018-10-03T08:12:10.553Z,3.77
2018-10-03T08:14:12.824Z,3.00
2018-10-03T08:16:15.109Z,3.07
2018-10-03T08:18:17.377Z,4.40
2018-10-03T08:20:19.660Z,2.93
2018-10-03T08:22:21.925Z,4.27
2018-10-03T08:24:24.268Z,4.03
2018-10-03T08:26:26.469Z,2.53
2018-10-03T08:28:28.714Z,3.87
2018-10-03T08:30:31.006Z,3.23
2018-10-03T08:32:33.354Z,3.50
2018-10-03T08:34:35.537Z,3.97
2018-10-03T08:36:37.818Z,3.60
2018-10-03T08:38:40.188Z,5.50
2018-10-03T08:40:43.482Z,3.17
2018-10-03T08:42:45.704Z,3.17
2018-10-03T08:44:47.995Z,4.20
2018-10-03T08:46:50.227Z,2.77
2018-10-03T08:48:52.461Z,3.03
2018-10-03T08:50:54.752Z,2.77
2018-10-03T08:52:56.984Z,2.57
2018-10-03T08:54:59.223Z,3.63
2018-10-03T08:57:01.496Z,3.97
2018-10-03T08:59:03.720Z,3.33
2018-10-03T09:01:05.997Z,3.77
2018-10-03T09:03:08.268Z,3.47
2018-10-03T09:05:10.538Z,3.20
2018-10-03T09:07:12.816Z,5.40
2018-10-03T09:09:15.062Z,2.53
2018-10-03T09:11:17.331Z,2.50
2018-10-03T09:13:19.602Z,3.93
2018-10-03T09:15:21.837Z,3.87
2018-10-03T09:17:24.110Z,2.83
2018-10-03T09:19:26.353Z,2.20
2018-10-03T09:21:28.669Z,3.10
2018-10-03T09:23:31.322Z,2.70
2018-10-03T09:25:33.570Z,2.97
2018-10-03T09:27:35.810Z,3.13
2018-10-03T09:29:38.070Z,2.63
2018-10-03T09:31:40.322Z,4.03
2018-10-03T09:33:42.574Z,3.20
2018-10-03T09:35:44.854Z,2.77
2018-10-03T09:37:47.090Z,2.93
2018-10-03T09:39:49.325Z,2.33
2018-10-03T09:41:51.586Z,3.73
2018-10-03T09:43:53.866Z,2.73
2018-10-03T09:45:56.100Z,3.47
2018-10-03T09:47:58.336Z,2.70
2018-10-03T09:50:00.614Z,6.20
2018-10-03T09:52:02.862Z,4.53
2018-10-03T09:54:05.120Z,3.03
2018-10-03T09:56:07.416Z,3.60
2018-10-03T09:58:09.629Z,4.70
2018-10-03T10:00:11.886Z,3.97
2018-10-03T10:02:14.120Z,5.47
2018-10-03T10:04:16.369Z,2.77
2018-10-03T10:06:18.654Z,3.53
2018-10-03T10:08:20.898Z,3.23
2018-10-03T10:10:23.412Z,2.33
2018-10-03T10:12:25.417Z,2.67
2018-10-03T10:14:27.628Z,4.87
2018-10-03T10:16:29.901Z,2.67
2018-10-03T10:18:32.143Z,4.40
2018-10-03T10:20:34.475Z,2.93
2018-10-03T10:22:36.645Z,3.17
2018-10-03T10:24:38.897Z,2.33
2018-10-03T10:26:41.162Z,3.37
2018-10-03T10:28:43.406Z,3.53
2018-10-03T10:30:45.641Z,3.30
2018-10-03T10:32:47.953Z,3.67
2018-10-03T10:34:50.139Z,3.87
2018-10-03T10:36:52.431Z,3.97
2018-10-03T10:38:54.717Z,4.27
2018-10-03T10:40:57.043Z,2.00
2018-10-03T10:42:59.260Z,3.43
2018-10-03T10:45:01.518Z,3.83
2018-10-03T10:47:03.792Z,3.63
2018-10-03T10:49:06.035Z,5.37
2018-10-03T10:51:08.275Z,3.57
2018-10-03T10:53:10.529Z,4.30
2018-10-03T10:55:12.797Z,2.10
2018-10-03T10:57:15.062Z,2.77
2018-10-03T10:59:17.321Z,2.83
2018-10-03T11:01:19.599Z,1.57
2018-10-03T11:03:21.872Z,3.00
2018-10-03T11:05:24.093Z,3.47
2018-10-03T11:07:26.346Z,3.20
2018-10-03T11:09:28.556Z,3.77
2018-10-03T11:11:30.846Z,2.77
2018-10-03T11:13:33.075Z,2.97
2018-10-03T11:15:35.373Z,3.73
2018-10-03T11:17:37.603Z,2.92
2018-10-03T11:19:39.845Z,1.90
2018-10-03T11:21:42.087Z,1.97
2018-10-03T11:23:44.489Z,1.60
2018-10-03T11:25:46.610Z,2.43
2018-10-03T11:27:48.897Z,2.73
2018-10-03T11:29:51.166Z,4.83
2018-10-03T11:31:53.395Z,3.50
2018-10-03T11:33:55.665Z,3.13
2018-10-03T11:35:57.923Z,3.70
2018-10-03T11:38:00.204Z,4.93
2018-10-03T11:40:02.476Z,2.37
2018-10-03T11:42:04.709Z,3.00
2018-10-03T11:44:06.979Z,3.63
2018-10-03T11:46:09.285Z,3.23
2018-10-03T11:48:11.522Z,1.60
2018-10-03T11:50:13.812Z,3.63
2018-10-03T11:52:17.407Z,2.03
2018-10-03T11:54:19.683Z,2.07
2018-10-03T11:56:21.908Z,1.93
2018-10-03T11:58:24.137Z,4.87
2018-10-03T12:00:26.404Z,1.20
2018-10-03T12:02:28.673Z,2.93
2018-10-03T12:04:30.913Z,2.47
2018-10-03T12:06:33.202Z,3.07
2018-10-03T12:08:35.397Z,4.33
2018-10-03T12:10:37.689Z,2.30
2018-10-03T12:12:40.453Z,2.77
2018-10-03T12:14:42.731Z,3.90
2018-10-03T12:16:44.944Z,3.20
2018-10-03T12:18:47.232Z,2.60
2018-10-03T12:20:49.440Z,2.93
2018-10-03T12:22:51.709Z,3.10
2018-10-03T12:24:53.965Z,4.20
2018-10-03T12:26:56.206Z,2.27
2018-10-03T12:28:58.464Z,2.43
2018-10-03T12:31:00.698Z,2.70
2018-10-03T12:33:02.986Z,2.17
2018-10-03T12:35:05.217Z,1.53
2018-10-03T12:37:07.528Z,2.90
2018-10-03T12:39:09.765Z,2.63
2018-10-03T12:41:11.993Z,2.20
2018-10-03T12:43:14.272Z,4.90
2018-10-03T12:45:16.516Z,1.70
2018-10-03T12:47:18.773Z,4.03
2018-10-03T12:49:21.045Z,2.13
2018-10-03T12:51:23.283Z,2.37
2018-10-03T12:53:25.560Z,1.97
2018-10-03T12:55:27.793Z,3.07
2018-10-03T12:57:30.065Z,1.93
2018-10-03T12:59:32.301Z,2.77
2018-10-03T13:01:34.578Z,0.80
2018-10-03T13:03:36.857Z,1.57
2018-10-03T13:05:39.141Z,1.43
2018-10-03T13:07:41.366Z,2.93
2018-10-03T13:09:43.641Z,2.53
2018-10-03T13:11:45.897Z,2.27
2018-10-03T13:13:48.178Z,1.87
2018-10-03T13:15:50.609Z,2.53
2018-10-03T13:17:52.900Z,3.00
2018-10-03T13:19:55.142Z,1.50
2018-10-03T13:21:57.373Z,2.40
2018-10-03T13:23:59.656Z,1.10
2018-10-03T13:26:01.898Z,1.53
2018-10-03T13:28:04.136Z,2.87
2018-10-03T13:30:06.406Z,2.00
2018-10-03T13:32:08.673Z,4.33
2018-10-03T13:34:10.919Z,1.67
2018-10-03T13:36:13.156Z,2.50
2018-10-03T13:38:15.438Z,1.60
2018-10-03T13:40:17.661Z,3.53
2018-10-03T13:42:19.900Z,1.87
2018-10-03T13:44:22.182Z,1.10
2018-10-03T13:46:24.429Z,1.97
2018-10-03T13:48:26.708Z,2.50
2018-10-03T13:50:28.953Z,2.03
2018-10-03T13:52:31.184Z,1.40
2018-10-03T13:54:33.507Z,1.70
2018-10-03T13:56:35.739Z,1.90
2018-10-03T13:58:37.964Z,2.50
2018-10-03T14:00:41.141Z,2.20
2018-10-03T14:02:43.422Z,1.47
2018-10-03T14:04:45.706Z,1.53
2018-10-03T14:06:47.957Z,14.77
2018-10-03T14:08:50.230Z,1.37
2018-10-03T14:10:52.514Z,4.63
2018-10-03T14:12:54.706Z,8.70
2018-10-03T14:14:56.982Z,6.03
2018-10-03T14:16:59.237Z,5.93
2018-10-03T14:19:01.516Z,5.27
2018-10-03T14:21:03.819Z,6.00
2018-10-03T14:23:06.077Z,5.00
2018-10-03T14:25:08.354Z,5.13
2018-10-03T14:27:10.651Z,8.60
2018-10-03T14:29:12.901Z,18.50
2018-10-03T14:31:15.152Z,24.00
2018-10-03T14:33:17.470Z,87.67
2018-10-03T14:35:19.712Z,233.40
2018-10-03T14:37:21.974Z,245.73
2018-10-03T14:39:24.248Z,206.73
2018-10-03T14:41:26.507Z,210.70
2018-10-03T14:43:28.782Z,195.67
2018-10-03T14:45:31.087Z,242.43
2018-10-03T14:47:33.330Z,308.70
2018-10-03T14:49:35.620Z,406.82
2018-10-03T14:51:37.879Z,387.50
2018-10-03T14:53:40.135Z,408.63
2018-10-03T14:55:42.402Z,374.60
2018-10-03T14:57:44.659Z,352.68
2018-10-03T14:59:46.951Z,331.30
2018-10-03T15:01:49.273Z,410.27
2018-10-03T15:03:51.501Z,659.00
2018-10-03T15:05:53.778Z,439.00
2018-10-03T15:07:56.040Z,466.65
2018-10-03T15:09:58.298Z,495.07
2018-10-03T15:12:00.589Z,484.67
2018-10-03T15:14:02.856Z,471.37
2018-10-03T15:16:05.194Z,467.67
2018-10-03T15:18:07.520Z,459.73
2018-10-03T15:20:09.787Z,435.97
2018-10-03T15:22:12.224Z,441.40
2018-10-03T15:24:14.576Z,435.47
2018-10-03T15:26:16.754Z,547.48
2018-10-03T15:28:19.062Z,465.88
2018-10-03T15:30:21.303Z,483.65
2018-10-03T15:32:23.544Z,508.30
2018-10-03T15:34:25.836Z,505.57
2018-10-03T15:36:28.100Z,485.33
2018-10-03T15:38:30.351Z,491.77
2018-10-03T15:40:32.604Z,469.57
2018-10-03T15:42:34.902Z,480.48
2018-10-03T15:44:37.165Z,507.00
2018-10-03T15:46:39.448Z,554.92
2018-10-03T15:48:41.701Z,594.93
2018-10-03T15:50:43.984Z,576.17
2018-10-03T15:52:46.280Z,583.98
2018-10-03T15:54:48.574Z,562.00
2018-10-03T15:56:50.797Z,537.42
2018-10-03T15:58:53.083Z,542.27
2018-10-03T16:00:55.373Z,615.50
2018-10-03T16:02:57.662Z,589.40
2018-10-03T16:04:59.899Z,453.05
2018-10-03T16:07:02.153Z,518.58
2018-10-03T16:09:04.441Z,540.73
2018-10-03T16:11:06.725Z,548.45
2018-10-03T16:13:08.992Z,581.20
2018-10-03T16:15:11.249Z,542.67
2018-10-03T16:17:13.508Z,535.43
2018-10-03T16:19:15.794Z,531.10
2018-10-03T16:21:18.102Z,481.70
2018-10-03T16:23:20.345Z,489.73
2018-10-03T16:25:22.628Z,503.30
2018-10-03T16:27:24.926Z,489.30
2018-10-03T16:29:27.256Z,490.58
2018-10-03T16:31:29.517Z,523.75
2018-10-03T16:33:31.862Z,556.92
2018-10-03T16:35:34.151Z,578.30
2018-10-03T16:37:36.401Z,588.15
2018-10-03T16:39:38.684Z,568.55
2018-10-03T16:41:40.931Z,576.33
2018-10-03T16:43:43.236Z,619.40
2018-10-03T16:45:45.525Z,628.02
2018-10-03T16:47:47.800Z,630.63
2018-10-03T16:49:50.149Z,632.40
2018-10-03T16:51:52.401Z,619.42
2018-10-03T16:53:54.688Z,592.10
2018-10-03T16:55:56.967Z,587.00
2018-10-03T16:57:59.261Z,600.63
2018-10-03T17:00:01.561Z,648.95
2018-10-03T17:02:03.819Z,752.25
2018-10-03T17:04:06.112Z,748.45
2018-10-03T17:06:08.401Z,737.70
2018-10-03T17:08:10.657Z,726.95
2018-10-03T17:10:12.942Z,711.70
2018-10-03T17:12:15.211Z,704.30
2018-10-03T17:14:17.459Z,761.10
2018-10-03T17:16:19.766Z,797.58
2018-10-03T17:18:22.067Z,773.52
2018-10-03T17:20:24.323Z,768.90
2018-10-03T17:22:26.615Z,751.55
2018-10-03T17:24:28.840Z,746.22
2018-10-03T17:26:31.089Z,738.52
2018-10-03T17:28:33.374Z,747.10
2018-10-03T17:30:35.630Z,728.50
2018-10-03T17:32:37.920Z,781.20
2018-10-03T17:34:40.211Z,789.58
2018-10-03T17:36:42.518Z,803.03
2018-10-03T17:38:44.787Z,803.27
2018-10-03T17:40:47.089Z,787.33
2018-10-03T17:42:49.426Z,806.43
2018-10-03T17:44:51.676Z,832.73
2018-10-03T17:46:53.937Z,842.80
2018-10-03T17:48:56.302Z,837.42
2018-10-03T17:50:58.492Z,834.77
2018-10-03T17:53:00.775Z,804.03
2018-10-03T17:55:03.017Z,811.00
2018-10-03T17:57:05.314Z,788.72
2018-10-03T17:59:07.603Z,797.95
2018-10-03T18:01:09.838Z,796.90
2018-10-03T18:03:12.100Z,786.05
2018-10-03T18:05:14.341Z,858.27
2018-10-03T18:07:16.681Z,845.65
2018-10-03T18:09:18.967Z,872.95
2018-10-03T18:11:21.600Z,841.37
2018-10-03T18:13:23.918Z,851.85
2018-10-03T18:15:26.119Z,836.55
2018-10-03T18:17:28.389Z,833.30
2018-10-03T18:19:30.678Z,837.65
2018-10-03T18:21:32.989Z,787.05
2018-10-03T18:23:35.230Z,814.25
2018-10-03T18:25:37.545Z,802.22
2018-10-03T18:27:39.785Z,793.00
2018-10-03T18:29:42.078Z,767.83
2018-10-03T18:31:44.319Z,833.25
2018-10-03T18:33:46.563Z,840.42
2018-10-03T18:35:48.860Z,836.12
2018-10-03T18:37:51.151Z,856.27
2018-10-03T18:39:53.376Z,856.20
2018-10-03T18:41:55.700Z,853.85
2018-10-03T18:43:57.990Z,842.17
2018-10-03T18:46:00.262Z,841.65
2018-10-03T18:48:02.543Z,828.50
2018-10-03T18:50:04.781Z,813.10
2018-10-03T18:52:07.092Z,766.48
2018-10-03T18:54:10.212Z,783.33
2018-10-03T18:56:12.496Z,773.37
2018-10-03T18:58:14.744Z,755.63
2018-10-03T19:00:17.002Z,785.20
2018-10-03T19:02:19.283Z,742.80
2018-10-03T19:04:21.586Z,750.55
2018-10-03T19:06:23.854Z,742.55
2018-10-03T19:08:26.133Z,739.85
2018-10-03T19:10:28.387Z,736.52
2018-10-03T19:12:30.664Z,760.65
2018-10-03T19:14:32.930Z,762.20
2018-10-03T19:16:35.184Z,767.90
2018-10-03T19:18:37.435Z,765.02
2018-10-03T19:20:39.751Z,756.23
2018-10-03T19:22:42.015Z,751.15
2018-10-03T19:24:44.267Z,760.52
2018-10-03T19:26:46.607Z,749.33
2018-10-03T19:28:48.809Z,733.67
2018-10-03T19:30:51.140Z,733.83
2018-10-03T19:32:53.460Z,765.08
2018-10-03T19:34:55.716Z,705.73
2018-10-03T19:36:57.956Z,812.52
2018-10-03T19:39:00.266Z,789.67
2018-10-03T19:41:02.567Z,795.23
2018-10-03T19:43:04.830Z,773.58
2018-10-03T19:45:07.093Z,787.67
2018-10-03T19:47:09.387Z,772.10
2018-10-03T19:49:11.699Z,773.35
2018-10-03T19:51:14.343Z,743.00
2018-10-03T19:53:16.614Z,726.77
2018-10-03T19:55:18.859Z,746.05
2018-10-03T19:57:21.149Z,743.92
2018-10-03T19:59:23.414Z,736.67
2018-10-03T20:01:25.711Z,736.70
2018-10-03T20:03:27.978Z,714.25
2018-10-03T20:05:30.566Z,720.90
2018-10-03T20:07:32.824Z,686.60
2018-10-03T20:09:35.109Z,692.30
2018-10-03T20:11:37.375Z,697.33
2018-10-03T20:13:39.711Z,697.37
2018-10-03T20:15:41.963Z,694.08
2018-10-03T20:17:44.238Z,685.55
2018-10-03T20:19:46.520Z,674.38
2018-10-03T20:21:48.768Z,661.90
2018-10-03T20:23:51.047Z,659.33
2018-10-03T20:25:53.311Z,649.40
2018-10-03T20:27:55.580Z,686.55
2018-10-03T20:29:57.869Z,722.63
2018-10-03T20:32:00.185Z,739.35
2018-10-03T20:34:02.452Z,733.98
2018-10-03T20:36:05.157Z,725.92
2018-10-03T20:38:07.434Z,745.00
2018-10-03T20:40:09.728Z,767.42
2018-10-03T20:42:11.980Z,797.58
2018-10-03T20:44:14.261Z,776.67
2018-10-03T20:46:16.893Z,777.92
2018-10-03T20:48:19.267Z,797.35
2018-10-03T20:50:21.443Z,758.87
2018-10-03T20:52:23.733Z,755.75
2018-10-03T20:54:26.157Z,765.40
2018-10-03T20:56:28.320Z,760.17
2018-10-03T20:58:30.621Z,773.23
2018-10-03T21:00:32.862Z,755.63
2018-10-03T21:02:35.113Z,755.70
2018-10-03T21:04:37.401Z,754.92
2018-10-03T21:06:39.652Z,783.10
2018-10-03T21:08:41.995Z,764.08
2018-10-03T21:10:44.208Z,774.45
2018-10-03T21:12:46.511Z,766.30
2018-10-03T21:14:48.772Z,798.42
2018-10-03T21:16:51.053Z,842.90
2018-10-03T21:18:53.320Z,838.65
2018-10-03T21:20:55.631Z,825.22
2018-10-03T21:22:57.867Z,816.13
2018-10-03T21:25:00.211Z,814.20
2018-10-03T21:27:02.413Z,802.67
2018-10-03T21:29:04.690Z,774.58
2018-10-03T21:31:06.946Z,790.50
2018-10-03T21:33:09.245Z,771.33
2018-10-03T21:35:11.531Z,791.75
2018-10-03T21:37:13.786Z,862.37
2018-10-03T21:39:16.032Z,826.75
2018-10-03T21:41:18.320Z,802.17
2018-10-03T21:43:20.574Z,825.55
2018-10-03T21:45:22.839Z,816.62
2018-10-03T21:47:25.120Z,814.75
2018-10-03T21:49:27.371Z,801.95
2018-10-03T21:51:29.662Z,794.33
2018-10-03T21:53:31.915Z,777.52
2018-10-03T21:55:34.180Z,755.22
2018-10-03T21:57:36.474Z,794.40
2018-10-03T21:59:38.734Z,775.53
2018-10-03T22:01:40.980Z,1182.88
2018-10-03T22:03:43.280Z,841.07
2018-10-03T22:05:45.529Z,805.05
2018-10-03T22:07:47.780Z,820.83
2018-10-03T22:09:50.060Z,825.33
2018-10-03T22:11:52.343Z,812.92
2018-10-03T22:13:54.602Z,805.03
2018-10-03T22:15:56.848Z,810.80
2018-10-03T22:17:59.142Z,854.03
2018-10-03T22:20:01.407Z,799.27
2018-10-03T22:22:03.718Z,839.98
2018-10-03T22:24:05.963Z,849.23
2018-10-03T22:26:08.263Z,887.40
2018-10-03T22:28:10.494Z,914.58
2018-10-03T22:30:12.718Z,920.97
2018-10-03T22:32:15.016Z,859.47
2018-10-03T22:34:17.279Z,865.27
2018-10-03T22:36:19.576Z,857.60
2018-10-03T22:38:21.822Z,873.60
2018-10-03T22:40:24.068Z,847.50
2018-10-03T22:42:26.352Z,820.88
2018-10-03T22:44:28.598Z,846.43
2018-10-03T22:46:30.896Z,858.83
2018-10-03T22:48:33.176Z,840.32
2018-10-03T22:50:35.466Z,858.30
2018-10-03T22:52:37.756Z,834.07
2018-10-03T22:54:40.017Z,822.95
2018-10-03T22:56:42.274Z,845.48
2018-10-03T22:58:44.540Z,827.43
2018-10-03T23:00:46.830Z,846.12
2018-10-03T23:02:49.086Z,834.33
2018-10-03T23:04:51.367Z,834.37
2018-10-03T23:06:53.616Z,835.20
2018-10-03T23:08:55.864Z,830.48
2018-10-03T23:10:58.152Z,813.65
2018-10-03T23:13:00.398Z,816.33
2018-10-03T23:15:02.659Z,804.05
2018-10-03T23:17:04.908Z,820.13
2018-10-03T23:19:07.192Z,764.17
2018-10-03T23:21:09.480Z,764.70
2018-10-03T23:23:11.769Z,795.75
2018-10-03T23:25:14.058Z,788.07
2018-10-03T23:27:16.335Z,785.90
2018-10-03T23:29:18.601Z,785.80
2018-10-03T23:31:20.874Z,767.33
2018-10-03T23:33:23.149Z,781.00
2018-10-03T23:35:25.437Z,767.85
2018-10-03T23:37:27.693Z,775.33
2018-10-03T23:39:29.939Z,779.00
2018-10-03T23:41:32.239Z,741.73
2018-10-03T23:43:34.491Z,759.47
2018-10-03T23:45:36.741Z,766.57
2018-10-03T23:47:39.026Z,770.37
2018-10-03T23:49:41.320Z,758.23
2018-10-03T23:51:43.579Z,745.57
2018-10-03T23:53:45.836Z,739.57
2018-10-03T23:55:48.109Z,745.50
2018-10-03T23:57:50.401Z,738.27
2018-10-03T23:59:52.689Z,736.90
